SFS weather

Subic Bay International Airport
Olongapo City, Zambales Province, Philippines

Public forecast

Using degrees Celsius for public forecast. Weather courtesy of forecast.io.

METAR (pilot weather report)

Retrieved 2019/01/23 03:00 UTC (50 minutes ago):

RPLB 230300Z 07013KT 9999 FEW018 31/18 Q1013 NOSIG RMK A2991

TAF (pilot weather forecast)

Forecast is more than 12 hours old.

Retrieved 2019/01/22 00:00 UTC (1 day ago):

TAF RPLB 222300Z 2300/2324 06009KT 9999 FEW020 SCT300 TX32/2306Z TN23/2321Z TEMPO 2300/2306 07012KT SCT020 BKN080